sensor_id;sensor_type;location;lat;lon;timestamp;temperature;humidity
8856;DHT22;4464;50.882;4.730;2022-07-22T00:00:59;16.10;99.90
8856;DHT22;4464;50.882;4.730;2022-07-22T00:03:28;16.10;99.90
8856;DHT22;4464;50.882;4.730;2022-07-22T00:05:54;16.00;99.90
8856;DHT22;4464;50.882;4.730;2022-07-22T00:08:22;16.00;99.90
8856;DHT22;4464;50.882;4.730;2022-07-22T00:10:51;15.90;99.90
8856;DHT22;4464;50.882;4.730;2022-07-22T00:13:17;16.00;99.90
8856;DHT22;4464;50.882;4.730;2022-07-22T00:15:43;16.00;99.90
8856;DHT22;4464;50.882;4.730;2022-07-22T00:18:09;16.00;99.90
8856;DHT22;4464;50.882;4.730;2022-07-22T00:20:35;16.00;99.90
8856;DHT22;4464;50.882;4.730;2022-07-22T00:23:03;15.90;99.90
8856;DHT22;4464;50.882;4.730;2022-07-22T00:25:29;15.90;99.90
8856;DHT22;4464;50.882;4.730;2022-07-22T00:27:55;15.80;99.90
8856;DHT22;4464;50.882;4.730;2022-07-22T00:30:21;15.80;99.90
8856;DHT22;4464;50.882;4.730;2022-07-22T00:32:47;15.80;99.90
8856;DHT22;4464;50.882;4.730;2022-07-22T00:35:15;15.70;99.90
8856;DHT22;4464;50.882;4.730;2022-07-22T00:37:44;15.70;99.90
8856;DHT22;4464;50.882;4.730;2022-07-22T00:40:12;15.70;99.90
8856;DHT22;4464;50.882;4.730;2022-07-22T00:42:37;15.60;99.90
8856;DHT22;4464;50.882;4.730;2022-07-22T00:45:03;15.50;99.90
8856;DHT22;4464;50.882;4.730;2022-07-22T00:47:29;15.50;99.90
8856;DHT22;4464;50.882;4.730;2022-07-22T00:49:55;15.50;99.90
8856;DHT22;4464;50.882;4.730;2022-07-22T00:52:26;15.50;99.90
8856;DHT22;4464;50.882;4.730;2022-07-22T00:54:53;15.40;99.90
8856;DHT22;4464;50.882;4.730;2022-07-22T00:57:22;15.40;99.90
8856;DHT22;4464;50.882;4.730;2022-07-22T00:59:48;15.40;99.90
8856;DHT22;4464;50.882;4.730;2022-07-22T01:02:14;15.40;99.90
8856;DHT22;4464;50.882;4.730;2022-07-22T01:04:40;15.50;99.90
8856;DHT22;4464;50.882;4.730;2022-07-22T01:07:07;15.50;99.90
8856;DHT22;4464;50.882;4.730;2022-07-22T01:09:32;15.40;99.90
8856;DHT22;4464;50.882;4.730;2022-07-22T01:12:02;15.30;99.90
8856;DHT22;4464;50.882;4.730;2022-07-22T01:14:28;15.30;99.90
8856;DHT22;4464;50.882;4.730;2022-07-22T01:16:56;15.10;99.90
8856;DHT22;4464;50.882;4.730;2022-07-22T01:19:22;15.20;99.90
8856;DHT22;4464;50.882;4.730;2022-07-22T01:21:48;15.20;99.90
8856;DHT22;4464;50.882;4.730;2022-07-22T01:24:14;15.10;99.90
8856;DHT22;4464;50.882;4.730;2022-07-22T01:26:42;15.00;99.90
8856;DHT22;4464;50.882;4.730;2022-07-22T01:29:08;15.00;99.90
8856;DHT22;4464;50.882;4.730;2022-07-22T01:31:34;15.00;99.90
8856;DHT22;4464;50.882;4.730;2022-07-22T01:34:02;15.10;99.90
8856;DHT22;4464;50.882;4.730;2022-07-22T01:36:28;15.00;99.90
8856;DHT22;4464;50.882;4.730;2022-07-22T01:38:57;15.00;99.90
8856;DHT22;4464;50.882;4.730;2022-07-22T01:41:23;15.00;99.90
8856;DHT22;4464;50.882;4.730;2022-07-22T01:43:49;15.00;99.90
8856;DHT22;4464;50.882;4.730;2022-07-22T01:46:17;15.00;99.90
8856;DHT22;4464;50.882;4.730;2022-07-22T01:48:45;15.00;99.90
8856;DHT22;4464;50.882;4.730;2022-07-22T01:51:11;15.00;99.90
8856;DHT22;4464;50.882;4.730;2022-07-22T01:53:40;15.00;99.90
8856;DHT22;4464;50.882;4.730;2022-07-22T01:56:05;14.90;99.90
8856;DHT22;4464;50.882;4.730;2022-07-22T01:58:34;14.90;99.90
8856;DHT22;4464;50.882;4.730;2022-07-22T02:01:00;14.90;99.90
8856;DHT22;4464;50.882;4.730;2022-07-22T02:03:28;14.80;99.90
8856;DHT22;4464;50.882;4.730;2022-07-22T02:05:54;14.70;99.90
8856;DHT22;4464;50.882;4.730;2022-07-22T02:08:21;14.80;99.90
8856;DHT22;4464;50.882;4.730;2022-07-22T02:10:47;14.80;99.90
8856;DHT22;4464;50.882;4.730;2022-07-22T02:13:13;14.80;99.90
8856;DHT22;4464;50.882;4.730;2022-07-22T02:15:41;14.80;99.90
8856;DHT22;4464;50.882;4.730;2022-07-22T02:18:18;14.80;99.90
8856;DHT22;4464;50.882;4.730;2022-07-22T02:20:45;14.70;99.90
8856;DHT22;4464;50.882;4.730;2022-07-22T02:23:13;14.70;99.90
8856;DHT22;4464;50.882;4.730;2022-07-22T02:25:40;14.60;99.90
8856;DHT22;4464;50.882;4.730;2022-07-22T02:28:06;14.60;99.90
8856;DHT22;4464;50.882;4.730;2022-07-22T02:30:32;14.60;99.90
8856;DHT22;4464;50.882;4.730;2022-07-22T02:32:58;14.50;99.90
8856;DHT22;4464;50.882;4.730;2022-07-22T02:35:24;14.40;99.90
8856;DHT22;4464;50.882;4.730;2022-07-22T02:37:55;14.50;99.90
8856;DHT22;4464;50.882;4.730;2022-07-22T02:40:21;14.40;99.90
8856;DHT22;4464;50.882;4.730;2022-07-22T02:42:47;14.40;99.90
8856;DHT22;4464;50.882;4.730;2022-07-22T02:45:13;14.30;99.90
8856;DHT22;4464;50.882;4.730;2022-07-22T02:47:53;14.30;99.90
8856;DHT22;4464;50.882;4.730;2022-07-22T02:50:20;14.30;99.90
8856;DHT22;4464;50.882;4.730;2022-07-22T02:52:46;14.30;99.90
8856;DHT22;4464;50.882;4.730;2022-07-22T02:55:12;14.30;99.90
8856;DHT22;4464;50.882;4.730;2022-07-22T02:57:38;14.40;99.90
8856;DHT22;4464;50.882;4.730;2022-07-22T03:00:06;14.40;99.90
8856;DHT22;4464;50.882;4.730;2022-07-22T03:02:34;14.40;99.90
8856;DHT22;4464;50.882;4.730;2022-07-22T03:05:04;14.40;99.90
8856;DHT22;4464;50.882;4.730;2022-07-22T03:07:35;14.30;99.90
8856;DHT22;4464;50.882;4.730;2022-07-22T03:10:01;14.20;99.90
8856;DHT22;4464;50.882;4.730;2022-07-22T03:12:29;14.20;99.90
8856;DHT22;4464;50.882;4.730;2022-07-22T03:14:55;14.20;99.90
8856;DHT22;4464;50.882;4.730;2022-07-22T03:17:21;14.10;99.90
8856;DHT22;4464;50.882;4.730;2022-07-22T03:19:47;14.10;99.90
8856;DHT22;4464;50.882;4.730;2022-07-22T03:22:16;14.20;99.90
8856;DHT22;4464;50.882;4.730;2022-07-22T03:24:43;14.10;99.90
8856;DHT22;4464;50.882;4.730;2022-07-22T03:27:12;14.10;99.90
8856;DHT22;4464;50.882;4.730;2022-07-22T03:29:40;14.00;99.90
8856;DHT22;4464;50.882;4.730;2022-07-22T03:32:05;14.10;99.90
8856;DHT22;4464;50.882;4.730;2022-07-22T03:34:31;14.10;99.90
8856;DHT22;4464;50.882;4.730;2022-07-22T03:37:01;14.10;99.90
8856;DHT22;4464;50.882;4.730;2022-07-22T03:39:28;14.00;99.90
8856;DHT22;4464;50.882;4.730;2022-07-22T03:41:54;14.00;99.90
8856;DHT22;4464;50.882;4.730;2022-07-22T03:44:22;14.00;99.90
8856;DHT22;4464;50.882;4.730;2022-07-22T03:46:48;14.00;99.90
8856;DHT22;4464;50.882;4.730;2022-07-22T03:49:14;14.00;99.90
8856;DHT22;4464;50.882;4.730;2022-07-22T03:51:40;14.00;99.90
8856;DHT22;4464;50.882;4.730;2022-07-22T03:54:06;14.20;99.90
8856;DHT22;4464;50.882;4.730;2022-07-22T03:56:34;14.20;99.90
8856;DHT22;4464;50.882;4.730;2022-07-22T03:59:00;14.10;99.90
8856;DHT22;4464;50.882;4.730;2022-07-22T04:01:26;14.10;99.90
8856;DHT22;4464;50.882;4.730;2022-07-22T04:03:51;14.00;99.90
8856;DHT22;4464;50.882;4.730;2022-07-22T04:06:20;14.10;99.90
8856;DHT22;4464;50.882;4.730;2022-07-22T04:08:45;14.00;99.90
8856;DHT22;4464;50.882;4.730;2022-07-22T04:11:11;14.00;99.90
8856;DHT22;4464;50.882;4.730;2022-07-22T04:13:37;14.00;99.90
8856;DHT22;4464;50.882;4.730;2022-07-22T04:16:04;14.00;99.90
8856;DHT22;4464;50.882;4.730;2022-07-22T04:18:31;14.00;99.90
8856;DHT22;4464;50.882;4.730;2022-07-22T04:20:57;14.00;99.90
8856;DHT22;4464;50.882;4.730;2022-07-22T04:23:25;14.00;99.90
8856;DHT22;4464;50.882;4.730;2022-07-22T04:25:51;14.20;99.90
8856;DHT22;4464;50.882;4.730;2022-07-22T04:28:17;14.30;99.90
8856;DHT22;4464;50.882;4.730;2022-07-22T04:30:43;14.30;99.90
8856;DHT22;4464;50.882;4.730;2022-07-22T04:33:12;14.30;99.90
8856;DHT22;4464;50.882;4.730;2022-07-22T04:35:38;14.30;99.90
8856;DHT22;4464;50.882;4.730;2022-07-22T04:38:04;14.40;99.90
8856;DHT22;4464;50.882;4.730;2022-07-22T04:40:29;14.30;99.90
8856;DHT22;4464;50.882;4.730;2022-07-22T04:42:55;14.40;99.90
8856;DHT22;4464;50.882;4.730;2022-07-22T04:45:21;14.40;99.90
8856;DHT22;4464;50.882;4.730;2022-07-22T04:47:49;14.40;99.90
8856;DHT22;4464;50.882;4.730;2022-07-22T04:50:17;14.50;99.90
8856;DHT22;4464;50.882;4.730;2022-07-22T04:52:44;14.50;99.90
8856;DHT22;4464;50.882;4.730;2022-07-22T04:55:10;14.60;99.90
8856;DHT22;4464;50.882;4.730;2022-07-22T04:57:36;14.60;99.90
8856;DHT22;4464;50.882;4.730;2022-07-22T05:00:03;14.60;99.90
8856;DHT22;4464;50.882;4.730;2022-07-22T05:02:29;14.60;99.90
8856;DHT22;4464;50.882;4.730;2022-07-22T05:04:56;14.70;99.90
8856;DHT22;4464;50.882;4.730;2022-07-22T05:07:25;14.70;99.90
8856;DHT22;4464;50.882;4.730;2022-07-22T05:09:53;14.80;99.90
8856;DHT22;4464;50.882;4.730;2022-07-22T05:12:21;15.00;99.90
8856;DHT22;4464;50.882;4.730;2022-07-22T05:14:47;15.10;99.90
8856;DHT22;4464;50.882;4.730;2022-07-22T05:17:13;15.10;99.90
8856;DHT22;4464;50.882;4.730;2022-07-22T05:19:39;15.20;99.90
8856;DHT22;4464;50.882;4.730;2022-07-22T05:22:07;15.30;99.90
8856;DHT22;4464;50.882;4.730;2022-07-22T05:24:33;15.30;99.90
8856;DHT22;4464;50.882;4.730;2022-07-22T05:26:59;15.40;99.90
8856;DHT22;4464;50.882;4.730;2022-07-22T05:29:25;15.50;99.90
8856;DHT22;4464;50.882;4.730;2022-07-22T05:31:51;15.60;99.90
8856;DHT22;4464;50.882;4.730;2022-07-22T05:34:17;15.70;99.90
8856;DHT22;4464;50.882;4.730;2022-07-22T05:36:45;15.80;99.90
8856;DHT22;4464;50.882;4.730;2022-07-22T05:39:11;15.90;99.90
8856;DHT22;4464;50.882;4.730;2022-07-22T05:41:37;15.90;99.90
8856;DHT22;4464;50.882;4.730;2022-07-22T05:44:04;15.90;99.90
8856;DHT22;4464;50.882;4.730;2022-07-22T05:46:30;16.00;99.90
8856;DHT22;4464;50.882;4.730;2022-07-22T05:48:58;16.10;99.90
8856;DHT22;4464;50.882;4.730;2022-07-22T05:51:24;16.20;99.90
8856;DHT22;4464;50.882;4.730;2022-07-22T05:53:50;16.30;99.90
8856;DHT22;4464;50.882;4.730;2022-07-22T05:56:18;16.30;99.90
8856;DHT22;4464;50.882;4.730;2022-07-22T05:58:47;16.40;99.90
8856;DHT22;4464;50.882;4.730;2022-07-22T06:01:12;16.30;99.90
8856;DHT22;4464;50.882;4.730;2022-07-22T06:03:41;16.40;99.90
8856;DHT22;4464;50.882;4.730;2022-07-22T06:06:07;16.50;99.90
8856;DHT22;4464;50.882;4.730;2022-07-22T06:08:38;16.60;99.90
8856;DHT22;4464;50.882;4.730;2022-07-22T06:11:04;16.60;99.90
8856;DHT22;4464;50.882;4.730;2022-07-22T06:13:32;16.80;99.90
8856;DHT22;4464;50.882;4.730;2022-07-22T06:15:59;16.90;99.90
8856;DHT22;4464;50.882;4.730;2022-07-22T06:18:27;17.00;99.90
8856;DHT22;4464;50.882;4.730;2022-07-22T06:20:53;17.10;99.90
8856;DHT22;4464;50.882;4.730;2022-07-22T06:23:19;17.20;99.90
8856;DHT22;4464;50.882;4.730;2022-07-22T06:25:45;17.40;99.90
8856;DHT22;4464;50.882;4.730;2022-07-22T06:28:11;17.40;99.90
8856;DHT22;4464;50.882;4.730;2022-07-22T06:30:37;17.40;99.90
8856;DHT22;4464;50.882;4.730;2022-07-22T06:33:04;17.40;99.90
8856;DHT22;4464;50.882;4.730;2022-07-22T06:35:32;17.50;99.90
8856;DHT22;4464;50.882;4.730;2022-07-22T06:38:03;17.60;99.90
8856;DHT22;4464;50.882;4.730;2022-07-22T06:40:31;17.70;99.90
8856;DHT22;4464;50.882;4.730;2022-07-22T06:42:59;17.80;99.90
8856;DHT22;4464;50.882;4.730;2022-07-22T06:45:25;17.90;99.90
8856;DHT22;4464;50.882;4.730;2022-07-22T06:47:51;17.90;99.90
8856;DHT22;4464;50.882;4.730;2022-07-22T06:50:17;18.10;99.90
8856;DHT22;4464;50.882;4.730;2022-07-22T06:52:43;18.20;99.90
8856;DHT22;4464;50.882;4.730;2022-07-22T06:55:09;18.20;99.90
8856;DHT22;4464;50.882;4.730;2022-07-22T06:57:35;18.20;99.90
8856;DHT22;4464;50.882;4.730;2022-07-22T07:00:03;18.30;99.90
8856;DHT22;4464;50.882;4.730;2022-07-22T07:02:30;18.50;99.90
8856;DHT22;4464;50.882;4.730;2022-07-22T07:04:56;18.60;99.90
8856;DHT22;4464;50.882;4.730;2022-07-22T07:07:22;18.70;99.90
8856;DHT22;4464;50.882;4.730;2022-07-22T07:09:47;18.80;99.90
8856;DHT22;4464;50.882;4.730;2022-07-22T07:12:13;19.00;99.90
8856;DHT22;4464;50.882;4.730;2022-07-22T07:14:38;19.10;99.90
8856;DHT22;4464;50.882;4.730;2022-07-22T07:17:07;19.20;99.90
8856;DHT22;4464;50.882;4.730;2022-07-22T07:19:32;19.20;99.90
8856;DHT22;4464;50.882;4.730;2022-07-22T07:21:58;19.40;99.90
8856;DHT22;4464;50.882;4.730;2022-07-22T07:24:24;19.40;99.90
8856;DHT22;4464;50.882;4.730;2022-07-22T07:26:50;19.50;99.90
8856;DHT22;4464;50.882;4.730;2022-07-22T07:29:15;19.70;99.90
8856;DHT22;4464;50.882;4.730;2022-07-22T07:31:42;19.70;99.90
8856;DHT22;4464;50.882;4.730;2022-07-22T07:34:10;20.00;99.90
8856;DHT22;4464;50.882;4.730;2022-07-22T07:36:35;20.00;99.90
8856;DHT22;4464;50.882;4.730;2022-07-22T07:39:04;20.10;99.90
8856;DHT22;4464;50.882;4.730;2022-07-22T07:41:32;20.30;99.90
8856;DHT22;4464;50.882;4.730;2022-07-22T07:43:59;20.40;99.90
8856;DHT22;4464;50.882;4.730;2022-07-22T07:46:27;20.70;99.90
8856;DHT22;4464;50.882;4.730;2022-07-22T07:48:52;20.80;99.90
8856;DHT22;4464;50.882;4.730;2022-07-22T07:51:18;21.10;99.90
8856;DHT22;4464;50.882;4.730;2022-07-22T07:53:47;21.10;99.90
8856;DHT22;4464;50.882;4.730;2022-07-22T07:56:15;21.30;99.90
8856;DHT22;4464;50.882;4.730;2022-07-22T07:58:41;21.60;99.90
8856;DHT22;4464;50.882;4.730;2022-07-22T08:01:07;21.50;99.90
8856;DHT22;4464;50.882;4.730;2022-07-22T08:03:33;21.50;99.90
8856;DHT22;4464;50.882;4.730;2022-07-22T08:06:01;21.60;99.90
8856;DHT22;4464;50.882;4.730;2022-07-22T08:08:29;21.70;99.90
8856;DHT22;4464;50.882;4.730;2022-07-22T08:10:55;21.90;99.90
8856;DHT22;4464;50.882;4.730;2022-07-22T08:13:21;21.90;99.90
8856;DHT22;4464;50.882;4.730;2022-07-22T08:15:47;21.80;99.90
8856;DHT22;4464;50.882;4.730;2022-07-22T08:18:14;22.00;99.90
8856;DHT22;4464;50.882;4.730;2022-07-22T08:20:40;22.00;99.90
8856;DHT22;4464;50.882;4.730;2022-07-22T08:23:06;22.30;99.90
8856;DHT22;4464;50.882;4.730;2022-07-22T08:25:32;22.10;99.90
8856;DHT22;4464;50.882;4.730;2022-07-22T08:27:58;22.10;99.90
8856;DHT22;4464;50.882;4.730;2022-07-22T08:30:24;22.10;99.90
8856;DHT22;4464;50.882;4.730;2022-07-22T08:32:52;22.10;99.90
8856;DHT22;4464;50.882;4.730;2022-07-22T08:35:18;22.10;99.90
8856;DHT22;4464;50.882;4.730;2022-07-22T08:37:47;22.10;99.90
8856;DHT22;4464;50.882;4.730;2022-07-22T08:40:18;22.20;99.90
8856;DHT22;4464;50.882;4.730;2022-07-22T08:42:45;22.40;99.90
8856;DHT22;4464;50.882;4.730;2022-07-22T08:45:12;22.40;99.90
8856;DHT22;4464;50.882;4.730;2022-07-22T08:47:38;22.60;99.90
8856;DHT22;4464;50.882;4.730;2022-07-22T08:50:07;22.60;99.90
8856;DHT22;4464;50.882;4.730;2022-07-22T08:52:33;22.70;99.90
8856;DHT22;4464;50.882;4.730;2022-07-22T08:55:02;22.90;99.90
8856;DHT22;4464;50.882;4.730;2022-07-22T08:57:28;23.20;99.90
8856;DHT22;4464;50.882;4.730;2022-07-22T08:59:56;23.10;99.90
8856;DHT22;4464;50.882;4.730;2022-07-22T09:02:23;22.90;99.90
8856;DHT22;4464;50.882;4.730;2022-07-22T09:07:43;23.00;99.90
8856;DHT22;4464;50.882;4.730;2022-07-22T09:10:16;23.10;99.90
8856;DHT22;4464;50.882;4.730;2022-07-22T09:12:59;23.50;99.90
8856;DHT22;4464;50.882;4.730;2022-07-22T09:15:32;24.20;99.90
8856;DHT22;4464;50.882;4.730;2022-07-22T09:18:07;24.10;99.90
8856;DHT22;4464;50.882;4.730;2022-07-22T09:20:35;23.90;99.90
8856;DHT22;4464;50.882;4.730;2022-07-22T09:23:03;23.90;99.90
8856;DHT22;4464;50.882;4.730;2022-07-22T09:25:36;24.00;99.90
8856;DHT22;4464;50.882;4.730;2022-07-22T09:30:33;24.30;99.90
8856;DHT22;4464;50.882;4.730;2022-07-22T09:32:58;24.50;99.90
8856;DHT22;4464;50.882;4.730;2022-07-22T09:35:26;24.70;99.90
8856;DHT22;4464;50.882;4.730;2022-07-22T09:38:09;24.90;99.90
8856;DHT22;4464;50.882;4.730;2022-07-22T09:40:40;25.20;99.90
8856;DHT22;4464;50.882;4.730;2022-07-22T09:43:12;25.60;99.90
8856;DHT22;4464;50.882;4.730;2022-07-22T09:45:53;25.50;99.90
8856;DHT22;4464;50.882;4.730;2022-07-22T09:48:20;25.40;99.90
8856;DHT22;4464;50.882;4.730;2022-07-22T09:50:47;24.80;99.90
8856;DHT22;4464;50.882;4.730;2022-07-22T09:53:18;25.00;99.90
8856;DHT22;4464;50.882;4.730;2022-07-22T09:55:44;25.10;99.90
8856;DHT22;4464;50.882;4.730;2022-07-22T09:58:13;25.00;99.90
8856;DHT22;4464;50.882;4.730;2022-07-22T10:00:40;25.30;99.90
8856;DHT22;4464;50.882;4.730;2022-07-22T10:03:09;25.70;99.90
8856;DHT22;4464;50.882;4.730;2022-07-22T10:05:40;26.10;99.90
8856;DHT22;4464;50.882;4.730;2022-07-22T10:08:07;25.90;99.90
8856;DHT22;4464;50.882;4.730;2022-07-22T10:10:37;26.00;99.90
8856;DHT22;4464;50.882;4.730;2022-07-22T10:13:05;25.90;99.90
8856;DHT22;4464;50.882;4.730;2022-07-22T10:15:32;26.00;99.90
8856;DHT22;4464;50.882;4.730;2022-07-22T10:18:06;26.10;99.90
8856;DHT22;4464;50.882;4.730;2022-07-22T10:20:34;26.10;99.90
8856;DHT22;4464;50.882;4.730;2022-07-22T10:23:05;26.70;99.70
8856;DHT22;4464;50.882;4.730;2022-07-22T10:28:26;27.30;99.10
8856;DHT22;4464;50.882;4.730;2022-07-22T10:31:07;27.60;98.80
8856;DHT22;4464;50.882;4.730;2022-07-22T10:33:39;28.60;98.00
8856;DHT22;4464;50.882;4.730;2022-07-22T10:36:06;29.70;96.50
8856;DHT22;4464;50.882;4.730;2022-07-22T10:38:34;30.80;94.80
8856;DHT22;4464;50.882;4.730;2022-07-22T10:41:05;31.40;93.60
8856;DHT22;4464;50.882;4.730;2022-07-22T10:43:46;30.90;93.20
8856;DHT22;4464;50.882;4.730;2022-07-22T10:46:12;29.60;93.80
8856;DHT22;4464;50.882;4.730;2022-07-22T10:58:46;31.30;92.10
8856;DHT22;4464;50.882;4.730;2022-07-22T11:01:14;31.10;92.00
8856;DHT22;4464;50.882;4.730;2022-07-22T11:03:43;30.70;92.60
8856;DHT22;4464;50.882;4.730;2022-07-22T11:08:46;31.50;91.70
8856;DHT22;4464;50.882;4.730;2022-07-22T11:11:12;31.30;91.30
8856;DHT22;4464;50.882;4.730;2022-07-22T11:13:41;30.50;91.50
8856;DHT22;4464;50.882;4.730;2022-07-22T11:16:19;29.80;92.40
8856;DHT22;4464;50.882;4.730;2022-07-22T11:21:19;30.10;92.50
8856;DHT22;4464;50.882;4.730;2022-07-22T11:23:48;30.10;92.90
8856;DHT22;4464;50.882;4.730;2022-07-22T11:26:17;30.60;92.20
8856;DHT22;4464;50.882;4.730;2022-07-22T11:28:44;31.10;91.80
8856;DHT22;4464;50.882;4.730;2022-07-22T11:31:15;31.60;90.80
8856;DHT22;4464;50.882;4.730;2022-07-22T11:33:44;31.20;91.70
8856;DHT22;4464;50.882;4.730;2022-07-22T11:36:13;31.10;90.90
8856;DHT22;4464;50.882;4.730;2022-07-22T11:38:49;30.10;92.20
8856;DHT22;4464;50.882;4.730;2022-07-22T11:41:17;29.90;92.30
8856;DHT22;4464;50.882;4.730;2022-07-22T11:43:47;29.90;92.30
8856;DHT22;4464;50.882;4.730;2022-07-22T11:46:17;29.50;92.90
8856;DHT22;4464;50.882;4.730;2022-07-22T11:48:44;28.60;93.70
8856;DHT22;4464;50.882;4.730;2022-07-22T11:51:12;27.70;95.10
8856;DHT22;4464;50.882;4.730;2022-07-22T11:53:40;27.80;95.60
8856;DHT22;4464;50.882;4.730;2022-07-22T11:56:10;28.60;94.60
8856;DHT22;4464;50.882;4.730;2022-07-22T11:58:47;28.20;94.30
8856;DHT22;4464;50.882;4.730;2022-07-22T12:01:17;28.80;94.00
8856;DHT22;4464;50.882;4.730;2022-07-22T12:03:48;28.20;93.90
8856;DHT22;4464;50.882;4.730;2022-07-22T12:06:16;27.70;94.70
8856;DHT22;4464;50.882;4.730;2022-07-22T12:08:45;27.90;94.90
8856;DHT22;4464;50.882;4.730;2022-07-22T12:11:14;28.10;94.80
8856;DHT22;4464;50.882;4.730;2022-07-22T12:13:42;28.50;94.50
8856;DHT22;4464;50.882;4.730;2022-07-22T12:16:29;28.40;94.60
8856;DHT22;4464;50.882;4.730;2022-07-22T12:19:07;28.30;94.60
8856;DHT22;4464;50.882;4.730;2022-07-22T12:21:51;28.70;94.50
8856;DHT22;4464;50.882;4.730;2022-07-22T12:24:33;29.00;94.00
8856;DHT22;4464;50.882;4.730;2022-07-22T12:27:07;29.10;93.60
8856;DHT22;4464;50.882;4.730;2022-07-22T12:32:06;28.70;93.70
8856;DHT22;4464;50.882;4.730;2022-07-22T12:34:46;28.80;93.70
8856;DHT22;4464;50.882;4.730;2022-07-22T12:37:18;29.00;93.60
8856;DHT22;4464;50.882;4.730;2022-07-22T12:40:10;29.00;94.00
8856;DHT22;4464;50.882;4.730;2022-07-22T12:42:42;29.30;93.40
8856;DHT22;4464;50.882;4.730;2022-07-22T12:45:12;29.20;93.40
8856;DHT22;4464;50.882;4.730;2022-07-22T12:47:50;29.00;93.80
8856;DHT22;4464;50.882;4.730;2022-07-22T12:50:24;28.80;93.70
8856;DHT22;4464;50.882;4.730;2022-07-22T12:52:53;28.60;94.40
8856;DHT22;4464;50.882;4.730;2022-07-22T12:55:23;29.10;94.10
8856;DHT22;4464;50.882;4.730;2022-07-22T12:57:51;29.90;92.90
8856;DHT22;4464;50.882;4.730;2022-07-22T13:00:24;30.40;92.60
8856;DHT22;4464;50.882;4.730;2022-07-22T13:02:51;31.20;92.00
8856;DHT22;4464;50.882;4.730;2022-07-22T13:05:20;31.80;91.00
8856;DHT22;4464;50.882;4.730;2022-07-22T13:07:46;30.80;91.60
8856;DHT22;4464;50.882;4.730;2022-07-22T13:10:13;30.80;91.90
8856;DHT22;4464;50.882;4.730;2022-07-22T13:12:40;30.40;91.80
8856;DHT22;4464;50.882;4.730;2022-07-22T13:15:09;30.60;91.80
8856;DHT22;4464;50.882;4.730;2022-07-22T13:17:35;30.60;91.80
8856;DHT22;4464;50.882;4.730;2022-07-22T13:20:03;30.40;92.10
8856;DHT22;4464;50.882;4.730;2022-07-22T13:22:33;30.20;91.80
8856;DHT22;4464;50.882;4.730;2022-07-22T13:25:00;29.90;92.00
8856;DHT22;4464;50.882;4.730;2022-07-22T13:27:29;29.30;92.70
8856;DHT22;4464;50.882;4.730;2022-07-22T13:29:55;29.40;92.90
8856;DHT22;4464;50.882;4.730;2022-07-22T13:32:21;28.40;93.60
8856;DHT22;4464;50.882;4.730;2022-07-22T13:34:49;28.90;93.30
8856;DHT22;4464;50.882;4.730;2022-07-22T13:37:18;29.10;93.40
8856;DHT22;4464;50.882;4.730;2022-07-22T13:39:44;28.70;93.60
8856;DHT22;4464;50.882;4.730;2022-07-22T13:42:12;28.90;93.40
8856;DHT22;4464;50.882;4.730;2022-07-22T13:44:38;28.70;93.50
8856;DHT22;4464;50.882;4.730;2022-07-22T13:47:05;29.00;93.80
8856;DHT22;4464;50.882;4.730;2022-07-22T13:49:33;29.40;92.90
8856;DHT22;4464;50.882;4.730;2022-07-22T13:51:59;29.30;92.90
8856;DHT22;4464;50.882;4.730;2022-07-22T13:54:27;29.20;92.60
8856;DHT22;4464;50.882;4.730;2022-07-22T13:56:55;29.90;92.70
8856;DHT22;4464;50.882;4.730;2022-07-22T13:59:26;29.20;92.50
8856;DHT22;4464;50.882;4.730;2022-07-22T14:01:53;28.90;93.00
8856;DHT22;4464;50.882;4.730;2022-07-22T14:04:19;28.50;94.00
8856;DHT22;4464;50.882;4.730;2022-07-22T14:06:45;28.80;93.50
8856;DHT22;4464;50.882;4.730;2022-07-22T14:09:11;29.00;93.20
8856;DHT22;4464;50.882;4.730;2022-07-22T14:11:37;28.80;92.80
8856;DHT22;4464;50.882;4.730;2022-07-22T14:14:02;28.70;93.30
8856;DHT22;4464;50.882;4.730;2022-07-22T14:16:31;28.90;93.00
8856;DHT22;4464;50.882;4.730;2022-07-22T14:19:13;28.70;93.20
8856;DHT22;4464;50.882;4.730;2022-07-22T14:21:43;29.20;93.20
8856;DHT22;4464;50.882;4.730;2022-07-22T14:24:10;29.90;92.60
8856;DHT22;4464;50.882;4.730;2022-07-22T14:26:37;29.80;92.40
8856;DHT22;4464;50.882;4.730;2022-07-22T14:29:04;29.90;92.20
8856;DHT22;4464;50.882;4.730;2022-07-22T14:31:31;29.90;92.00
8856;DHT22;4464;50.882;4.730;2022-07-22T14:33:57;29.50;92.00
8856;DHT22;4464;50.882;4.730;2022-07-22T14:36:23;29.30;92.50
8856;DHT22;4464;50.882;4.730;2022-07-22T14:38:49;28.90;93.00
8856;DHT22;4464;50.882;4.730;2022-07-22T14:41:37;28.00;93.00
8856;DHT22;4464;50.882;4.730;2022-07-22T14:44:04;27.60;94.60
8856;DHT22;4464;50.882;4.730;2022-07-22T14:46:29;27.40;94.40
8856;DHT22;4464;50.882;4.730;2022-07-22T14:48:55;27.40;94.50
8856;DHT22;4464;50.882;4.730;2022-07-22T14:51:22;27.40;95.10
8856;DHT22;4464;50.882;4.730;2022-07-22T14:53:48;27.20;94.60
8856;DHT22;4464;50.882;4.730;2022-07-22T14:56:17;27.00;95.10
8856;DHT22;4464;50.882;4.730;2022-07-22T14:58:45;26.80;95.50
8856;DHT22;4464;50.882;4.730;2022-07-22T15:01:11;26.60;96.20
8856;DHT22;4464;50.882;4.730;2022-07-22T15:03:38;26.40;96.30
8856;DHT22;4464;50.882;4.730;2022-07-22T15:06:04;26.50;96.20
8856;DHT22;4464;50.882;4.730;2022-07-22T15:08:30;26.40;96.00
8856;DHT22;4464;50.882;4.730;2022-07-22T15:10:59;26.20;97.00
8856;DHT22;4464;50.882;4.730;2022-07-22T15:13:28;26.40;96.80
8856;DHT22;4464;50.882;4.730;2022-07-22T15:15:57;26.60;96.40
8856;DHT22;4464;50.882;4.730;2022-07-22T15:18:29;26.50;96.10
8856;DHT22;4464;50.882;4.730;2022-07-22T15:20:55;26.50;95.80
8856;DHT22;4464;50.882;4.730;2022-07-22T15:23:25;26.20;96.30
8856;DHT22;4464;50.882;4.730;2022-07-22T15:26:11;25.60;96.90
8856;DHT22;4464;50.882;4.730;2022-07-22T15:28:36;25.60;97.20
8856;DHT22;4464;50.882;4.730;2022-07-22T15:31:03;25.40;97.30
8856;DHT22;4464;50.882;4.730;2022-07-22T15:33:32;25.60;97.70
8856;DHT22;4464;50.882;4.730;2022-07-22T15:36:07;25.80;97.40
8856;DHT22;4464;50.882;4.730;2022-07-22T15:38:36;25.90;97.10
8856;DHT22;4464;50.882;4.730;2022-07-22T15:41:06;26.10;97.40
8856;DHT22;4464;50.882;4.730;2022-07-22T15:43:33;26.10;97.40
8856;DHT22;4464;50.882;4.730;2022-07-22T15:45:59;26.00;97.10
8856;DHT22;4464;50.882;4.730;2022-07-22T15:48:26;25.90;97.70
8856;DHT22;4464;50.882;4.730;2022-07-22T15:50:56;25.60;97.90
8856;DHT22;4464;50.882;4.730;2022-07-22T15:53:22;25.60;98.20
8856;DHT22;4464;50.882;4.730;2022-07-22T15:55:51;25.50;98.20
8856;DHT22;4464;50.882;4.730;2022-07-22T15:58:19;25.30;98.70
8856;DHT22;4464;50.882;4.730;2022-07-22T16:01:03;25.30;98.50
8856;DHT22;4464;50.882;4.730;2022-07-22T16:03:31;25.20;98.90
8856;DHT22;4464;50.882;4.730;2022-07-22T16:06:00;25.00;99.50
8856;DHT22;4464;50.882;4.730;2022-07-22T16:08:27;24.80;99.90
8856;DHT22;4464;50.882;4.730;2022-07-22T16:10:56;24.50;99.90
8856;DHT22;4464;50.882;4.730;2022-07-22T16:13:24;24.40;99.90
8856;DHT22;4464;50.882;4.730;2022-07-22T16:15:50;24.50;99.90
8856;DHT22;4464;50.882;4.730;2022-07-22T16:18:16;24.60;99.90
8856;DHT22;4464;50.882;4.730;2022-07-22T16:20:43;24.70;99.90
8856;DHT22;4464;50.882;4.730;2022-07-22T16:23:09;24.60;99.90
8856;DHT22;4464;50.882;4.730;2022-07-22T16:25:35;24.30;99.90
8856;DHT22;4464;50.882;4.730;2022-07-22T16:28:01;24.30;99.90
8856;DHT22;4464;50.882;4.730;2022-07-22T16:30:28;24.10;99.90
8856;DHT22;4464;50.882;4.730;2022-07-22T16:32:54;24.00;99.90